createdAt,value
2018-03-21T13:08:10.458Z,1019.83
2018-03-21T13:09:10.381Z,1019.81
2018-03-21T13:10:09.972Z,1019.83
2018-03-21T13:11:09.932Z,1019.85
2018-03-21T13:12:09.929Z,1019.85
2018-03-21T13:13:09.914Z,1019.80
2018-03-21T13:14:09.863Z,1019.84
2018-03-21T13:15:14.565Z,1019.85
2018-03-21T13:16:09.802Z,1019.82
2018-03-21T13:17:09.782Z,1019.82
2018-03-21T13:18:09.765Z,1019.81
2018-03-21T13:19:10.560Z,1019.82
2018-03-21T13:20:10.584Z,1019.76
2018-03-21T13:21:09.719Z,1019.77
2018-03-21T13:22:09.663Z,1019.74
2018-03-21T13:23:09.647Z,1019.81
2018-03-21T13:24:10.556Z,1019.77
2018-03-21T13:25:09.597Z,1019.79
2018-03-21T13:26:09.656Z,1019.79
2018-03-21T13:27:09.533Z,1019.78
2018-03-21T13:28:09.515Z,1019.77
2018-03-21T13:29:09.523Z,1019.76
2018-03-21T13:30:10.078Z,1019.76
2018-03-21T13:31:10.106Z,1019.76
2018-03-21T13:32:10.079Z,1019.70
2018-03-21T13:33:09.416Z,1019.75
2018-03-21T13:34:09.409Z,1019.75
2018-03-21T13:35:09.354Z,1019.70
2018-03-21T13:36:09.315Z,1019.74
2018-03-21T13:37:10.116Z,1019.70
2018-03-21T13:38:09.294Z,1019.71
2018-03-21T13:39:09.246Z,1019.71
2018-03-21T13:40:09.280Z,1019.73
2018-03-21T13:41:09.246Z,1019.74
2018-03-21T13:42:09.166Z,1019.73
2018-03-21T13:43:09.171Z,1019.70
2018-03-21T13:44:09.154Z,1019.68
2018-03-21T13:45:09.130Z,1019.68
2018-03-21T13:46:09.092Z,1019.69
2018-03-21T13:47:09.046Z,1019.73
2018-03-21T13:48:09.048Z,1019.73
2018-03-21T13:49:08.992Z,1019.72
2018-03-21T13:50:08.978Z,1019.74
2018-03-21T13:51:10.562Z,1019.73
2018-03-21T13:52:09.577Z,1019.76
2018-03-21T13:53:08.915Z,1019.77
2018-03-21T13:55:11.055Z,1019.82
2018-03-21T13:56:09.825Z,1019.84
2018-03-21T13:57:09.848Z,1019.86
2018-03-21T13:58:08.810Z,1019.84
2018-03-21T13:59:08.971Z,1019.87
2018-03-21T14:00:09.031Z,1019.88
2018-03-21T14:01:08.737Z,1019.91
2018-03-21T14:02:09.530Z,1019.90
2018-03-21T14:03:08.650Z,1019.83
2018-03-21T14:04:08.605Z,1019.89
2018-03-21T14:05:08.587Z,1019.86
2018-03-21T14:07:41.472Z,1019.87
2018-03-21T14:08:41.217Z,1019.85
2018-03-21T14:09:41.164Z,1019.86
2018-03-21T14:10:41.147Z,1019.84
2018-03-21T14:11:41.144Z,1019.88
2018-03-21T14:12:41.100Z,1019.82
2018-03-21T14:13:41.066Z,1019.82
2018-03-21T14:14:42.042Z,1019.77
2018-03-21T14:15:41.968Z,1019.72
2018-03-21T14:16:41.008Z,1019.71
2018-03-21T14:18:41.465Z,1019.78
2018-03-21T14:19:40.954Z,1019.79
2018-03-21T14:20:40.914Z,1019.80
2018-03-21T14:21:42.792Z,1019.75
2018-03-21T14:22:40.861Z,1019.75
2018-03-21T14:23:40.826Z,1019.78
2018-03-21T14:24:41.810Z,1019.81
2018-03-21T14:25:40.808Z,1019.80
2018-03-21T14:26:40.807Z,1019.79
2018-03-21T14:27:40.739Z,1019.76
2018-03-21T14:28:40.750Z,1019.80
2018-03-21T14:29:41.592Z,1019.78
2018-03-21T14:30:40.732Z,1019.74
2018-03-21T14:31:41.535Z,1019.73
2018-03-21T14:32:40.629Z,1019.72
2018-03-21T14:33:41.612Z,1019.72
2018-03-21T14:34:40.588Z,1019.71
2018-03-21T14:35:40.557Z,1019.69
2018-03-21T14:36:40.526Z,1019.67
2018-03-21T14:37:40.519Z,1019.59
2018-03-21T14:38:41.151Z,1019.56
2018-03-21T14:39:40.595Z,1019.56
2018-03-21T14:40:40.438Z,1019.55
2018-03-21T14:41:40.441Z,1019.52
2018-03-21T14:42:42.296Z,1019.50
2018-03-21T14:43:42.040Z,1019.47
2018-03-21T14:44:41.307Z,1019.46
2018-03-21T14:45:40.361Z,1019.46
2018-03-21T14:46:40.416Z,1019.44
2018-03-21T14:47:40.271Z,1019.49
2018-03-21T14:48:40.255Z,1019.44
2018-03-21T14:49:42.024Z,1019.43
2018-03-21T14:50:40.205Z,1019.43
2018-03-21T14:51:41.036Z,1019.45
2018-03-21T14:52:40.200Z,1019.39
2018-03-21T16:26:50.074Z,1018.37
2018-03-21T16:27:49.875Z,1018.41
2018-03-21T16:28:49.839Z,1018.41
2018-03-21T16:29:49.803Z,1018.37
2018-03-21T16:30:49.795Z,1018.31
2018-03-21T16:31:49.761Z,1018.28
2018-03-21T16:32:49.741Z,1018.30
2018-03-21T16:33:49.721Z,1018.26
2018-03-21T16:34:49.714Z,1018.27
2018-03-21T16:35:49.657Z,1018.25
2018-03-21T16:36:50.527Z,1018.28
2018-03-21T16:37:49.680Z,1018.29
2018-03-21T16:38:50.448Z,1018.22
2018-03-21T16:39:49.585Z,1018.21
2018-03-21T16:40:49.574Z,1018.23
2018-03-21T16:41:49.536Z,1018.18
2018-03-21T16:42:49.509Z,1018.15
2018-03-21T16:43:49.491Z,1018.16
2018-03-21T16:44:49.461Z,1018.19
2018-03-21T16:45:49.446Z,1018.15
2018-03-21T16:46:49.457Z,1018.19
2018-03-21T16:47:49.479Z,1018.17
2018-03-21T16:48:49.364Z,1018.16
2018-03-21T16:49:49.352Z,1018.14
2018-03-21T16:50:49.340Z,1018.13
2018-03-21T16:51:51.347Z,1018.07
2018-03-21T16:52:49.321Z,1018.11
2018-03-21T16:53:49.276Z,1018.06
2018-03-21T16:54:49.243Z,1018.03
2018-03-21T16:55:49.242Z,1018.03
2018-03-21T16:56:49.949Z,1017.97
2018-03-21T16:57:49.195Z,1017.98
2018-03-21T16:58:50.257Z,1017.96
2018-03-21T16:59:49.129Z,1017.93
2018-03-21T17:00:49.138Z,1017.87
2018-03-21T17:01:49.125Z,1017.89
2018-03-21T17:02:49.060Z,1017.88
2018-03-21T17:03:49.025Z,1017.91
2018-03-21T17:04:49.035Z,1017.89
2018-03-21T17:05:48.978Z,1017.88
2018-03-21T17:06:48.956Z,1017.81
2018-03-21T17:07:48.962Z,1017.84
2018-03-21T17:08:49.473Z,1017.91
2018-03-21T17:09:48.925Z,1017.83
2018-03-21T17:10:48.900Z,1017.80
2018-03-21T17:11:48.847Z,1017.74
2018-03-21T17:12:48.844Z,1017.73
2018-03-21T17:13:48.803Z,1017.67
2018-03-21T17:14:48.767Z,1017.74
2018-03-21T17:15:48.754Z,1017.71
2018-03-21T17:16:48.723Z,1017.66
2018-03-21T17:17:48.706Z,1017.63
2018-03-21T17:18:48.745Z,1017.66
2018-03-21T17:19:49.467Z,1017.67
2018-03-21T17:20:50.241Z,1017.68
2018-03-21T17:21:48.629Z,1017.59
2018-03-21T17:22:48.608Z,1017.53
2018-03-21T17:23:48.585Z,1017.56
2018-03-21T17:24:48.567Z,1017.56
2018-03-21T17:25:48.540Z,1017.55
2018-03-21T17:26:48.522Z,1017.47
2018-03-21T17:27:48.465Z,1017.50
2018-03-21T17:28:48.460Z,1017.50
2018-03-21T17:29:48.423Z,1017.53
2018-03-21T17:30:48.399Z,1017.48
2018-03-21T17:31:48.401Z,1017.41
2018-03-21T17:32:48.372Z,1017.40
2018-03-21T17:33:48.333Z,1017.36
2018-03-21T17:34:48.321Z,1017.37
2018-03-21T17:35:48.302Z,1017.26
2018-03-21T17:36:48.253Z,1017.22
2018-03-21T17:37:48.230Z,1017.21
2018-03-21T17:38:48.225Z,1017.24
2018-03-21T17:39:48.191Z,1017.27
2018-03-21T17:40:48.971Z,1017.19
2018-03-21T17:41:48.167Z,1017.25
2018-03-21T17:42:48.224Z,1017.21
2018-03-21T17:43:48.091Z,1017.24
2018-03-21T17:44:48.082Z,1017.15
2018-03-21T17:45:48.092Z,1017.10
2018-03-21T17:46:48.004Z,1017.04
2018-03-21T17:47:47.992Z,1017.03
2018-03-21T17:48:47.979Z,1016.99
2018-03-21T17:49:47.955Z,1016.97
2018-03-21T17:50:47.944Z,1016.95
2018-03-21T17:51:47.910Z,1016.96
2018-03-21T17:52:47.909Z,1016.91
2018-03-21T17:53:47.893Z,1016.93
2018-03-21T17:54:47.853Z,1016.95
2018-03-21T17:55:48.490Z,1016.88
2018-03-21T17:56:48.476Z,1016.90
2018-03-21T17:57:48.479Z,1016.86
2018-03-21T17:58:48.040Z,1016.79
2018-03-21T17:59:47.718Z,1016.81
2018-03-21T18:00:47.715Z,1016.71
2018-03-21T18:01:47.680Z,1016.70
2018-03-21T18:02:48.500Z,1016.69
2018-03-21T18:03:48.496Z,1016.74
2018-03-21T18:04:47.678Z,1016.66
2018-03-21T18:05:47.567Z,1016.61
2018-03-21T18:06:47.554Z,1016.63
2018-03-21T18:07:47.516Z,1016.60
2018-03-21T18:08:48.490Z,1016.55
2018-03-21T18:09:47.509Z,1016.50
2018-03-21T18:10:47.445Z,1016.48
2018-03-21T18:11:47.420Z,1016.45
2018-03-21T18:12:47.439Z,1016.42
2018-03-21T18:13:47.369Z,1016.46
2018-03-21T18:14:48.013Z,1016.40
2018-03-21T18:15:48.047Z,1016.43
2018-03-21T18:16:47.300Z,1016.38
2018-03-21T18:17:47.274Z,1016.41
2018-03-21T18:18:47.331Z,1016.41
2018-03-21T18:19:47.241Z,1016.42
2018-03-21T18:20:47.234Z,1016.36
2018-03-21T18:21:47.212Z,1016.45
2018-03-21T18:22:47.164Z,1016.37
2018-03-21T18:23:47.134Z,1016.39
2018-03-21T18:24:47.136Z,1016.37
2018-03-21T18:25:47.120Z,1016.31
2018-03-21T18:26:47.058Z,1016.26
2018-03-21T18:27:47.047Z,1016.28
2018-03-21T18:28:47.031Z,1016.24
2018-03-21T18:29:47.030Z,1016.28
2018-03-21T18:30:46.967Z,1016.26
2018-03-21T18:31:47.513Z,1016.23
2018-03-21T18:32:46.926Z,1016.24
2018-03-21T18:33:46.941Z,1016.22
2018-03-21T18:34:46.882Z,1016.22
2018-03-21T18:35:47.527Z,1016.21
2018-03-21T18:36:46.840Z,1016.20
2018-03-21T18:37:48.489Z,1016.19
2018-03-21T18:41:52.839Z,1016.12
2018-03-21T18:42:52.835Z,1016.13
2018-03-21T18:44:48.758Z,1016.12
2018-03-21T18:45:48.693Z,1016.19
2018-03-21T18:47:44.759Z,1016.12
2018-03-21T18:48:45.094Z,1016.14
2018-03-21T18:50:37.820Z,1016.13
2018-03-21T18:51:37.804Z,1016.11
2018-03-21T18:53:32.306Z,1016.11
2018-03-21T18:54:32.716Z,1016.17
2018-03-21T18:56:27.424Z,1016.15
2018-03-21T18:57:27.412Z,1016.11
2018-03-21T18:58:28.029Z,1016.15
2018-03-21T18:59:27.352Z,1016.09
2018-03-21T19:00:27.394Z,1016.10
2018-03-21T19:01:27.309Z,1016.07
2018-03-21T19:02:27.284Z,1016.11
2018-03-21T19:03:27.284Z,1016.04
2018-03-21T19:04:27.244Z,1016.08
2018-03-21T19:05:27.214Z,1016.09
2018-03-21T19:06:27.225Z,1016.09
2018-03-21T19:07:27.174Z,1016.05
2018-03-21T19:08:27.175Z,1016.04
2018-03-21T19:09:27.153Z,1016.05
2018-03-21T19:10:27.128Z,1016.01
2018-03-21T19:11:27.076Z,1015.98
2018-03-21T19:12:27.058Z,1016.03
2018-03-21T19:13:27.064Z,1016.06
2018-03-21T19:14:28.035Z,1015.99
2018-03-21T19:15:26.994Z,1015.98
2018-03-21T19:16:27.502Z,1015.94
2018-03-21T19:17:27.542Z,1015.98
2018-03-21T19:18:26.946Z,1015.96
2018-03-21T19:19:26.956Z,1016.00
2018-03-21T19:20:26.883Z,1015.98
2018-03-21T19:21:26.897Z,1016.00
2018-03-21T19:22:26.845Z,1015.97
2018-03-21T19:23:26.803Z,1015.90
2018-03-21T19:24:26.768Z,1015.93
2018-03-21T19:25:26.771Z,1015.91
2018-03-21T19:26:26.719Z,1015.91
2018-03-21T19:27:26.723Z,1015.88
2018-03-21T19:28:26.699Z,1015.88
2018-03-21T19:29:26.647Z,1015.83
2018-03-21T19:30:26.673Z,1015.87
2018-03-21T19:31:26.613Z,1015.84
2018-03-21T19:32:26.575Z,1015.87
2018-03-21T19:33:26.559Z,1015.89
2018-03-21T19:34:26.537Z,1015.88
2018-03-21T19:35:26.507Z,1015.89
2018-03-21T19:36:28.021Z,1015.91
2018-03-21T19:37:26.474Z,1015.92
2018-03-21T19:38:26.686Z,1015.86
2018-03-21T19:39:27.001Z,1015.83
2018-03-21T19:40:26.414Z,1015.82
2018-03-21T19:41:26.363Z,1015.79
2018-03-21T19:42:33.030Z,1015.80
2018-03-21T19:43:27.015Z,1015.81
2018-03-21T19:44:26.321Z,1015.81
2018-03-21T19:45:26.271Z,1015.74
2018-03-21T19:46:26.268Z,1015.73
2018-03-21T19:47:26.305Z,1015.72
2018-03-21T19:48:26.192Z,1015.69
2018-03-21T19:49:26.186Z,1015.67
2018-03-21T19:50:26.226Z,1015.67
2018-03-21T19:51:26.112Z,1015.69
2018-03-21T19:52:26.207Z,1015.65
2018-03-21T19:53:26.100Z,1015.61
2018-03-21T19:54:26.108Z,1015.57
2018-03-21T19:55:26.019Z,1015.60
2018-03-21T19:56:26.010Z,1015.57
2018-03-21T19:57:26.004Z,1015.52
2018-03-21T19:58:25.972Z,1015.55
2018-03-21T19:59:25.967Z,1015.55
2018-03-21T20:00:25.941Z,1015.50
2018-03-21T20:01:25.896Z,1015.48
2018-03-21T20:02:25.874Z,1015.46
2018-03-21T20:03:25.833Z,1015.49
2018-03-21T20:04:25.847Z,1015.47
2018-03-21T20:05:25.787Z,1015.48
2018-03-21T20:06:25.798Z,1015.47
2018-03-21T20:07:25.761Z,1015.53
2018-03-21T20:08:26.519Z,1015.52
2018-03-21T20:09:25.727Z,1015.51
2018-03-21T20:10:25.677Z,1015.45
2018-03-21T20:11:25.678Z,1015.45
2018-03-21T20:12:25.611Z,1015.48
2018-03-21T20:13:25.620Z,1015.43
2018-03-21T20:14:25.594Z,1015.41
2018-03-21T20:15:25.555Z,1015.44
2018-03-21T20:16:25.538Z,1015.45
2018-03-21T20:17:26.012Z,1015.43
2018-03-21T20:18:25.480Z,1015.45
2018-03-21T20:19:25.451Z,1015.40
2018-03-21T20:20:25.479Z,1015.44
2018-03-21T20:21:25.439Z,1015.37
2018-03-21T20:22:25.388Z,1015.41
2018-03-21T20:23:25.394Z,1015.35
2018-03-21T20:24:25.349Z,1015.34
2018-03-21T20:25:25.343Z,1015.34
2018-03-21T20:26:25.339Z,1015.33
2018-03-21T20:27:25.271Z,1015.32
2018-03-21T20:28:25.276Z,1015.34
2018-03-21T20:29:25.224Z,1015.34
2018-03-21T20:30:27.020Z,1015.32
2018-03-21T20:31:25.219Z,1015.30
2018-03-21T20:32:26.037Z,1015.29
2018-03-21T20:33:25.117Z,1015.25
2018-03-21T20:34:25.141Z,1015.24
2018-03-21T20:35:25.746Z,1015.24
2018-03-21T20:36:25.070Z,1015.25
2018-03-21T20:37:26.026Z,1015.25
2018-03-21T20:38:25.045Z,1015.19
2018-03-21T20:39:25.059Z,1015.17
2018-03-21T20:40:25.575Z,1015.13
2018-03-21T20:41:24.941Z,1015.18
2018-03-21T20:42:24.961Z,1015.19
2018-03-21T20:43:24.915Z,1015.19
2018-03-21T20:44:24.879Z,1015.22
2018-03-21T20:45:24.874Z,1015.16
2018-03-21T20:46:24.855Z,1015.19
2018-03-21T20:47:24.815Z,1015.19
2018-03-21T20:48:24.772Z,1015.17
2018-03-21T20:49:24.790Z,1015.13
2018-03-21T20:50:24.736Z,1015.17
2018-03-21T20:51:24.728Z,1015.16
2018-03-21T20:52:24.729Z,1015.16
2018-03-21T20:53:24.656Z,1015.18
2018-03-21T20:54:24.668Z,1015.15
2018-03-21T20:55:24.629Z,1015.14
2018-03-21T20:56:24.642Z,1015.08
2018-03-21T20:57:24.592Z,1015.13
2018-03-21T20:58:24.618Z,1015.11
2018-03-21T20:59:24.750Z,1015.09
2018-03-21T21:00:24.484Z,1015.10
2018-03-21T21:01:27.269Z,1015.04
2018-03-21T21:03:47.574Z,1015.01
2018-03-21T21:04:47.039Z,1015.06
2018-03-21T21:05:47.018Z,1014.99
2018-03-21T21:06:46.994Z,1015.04
2018-03-21T21:07:46.996Z,1015.01
2018-03-21T21:08:46.950Z,1015.00
2018-03-21T21:09:46.945Z,1015.01
2018-03-21T21:10:46.901Z,1015.01
2018-03-21T21:11:46.871Z,1014.97
2018-03-21T21:12:46.856Z,1014.97
2018-03-21T21:13:46.833Z,1014.93
2018-03-21T21:14:46.805Z,1014.90
2018-03-21T21:15:46.789Z,1014.85
2018-03-21T21:16:46.748Z,1014.85
2018-03-21T21:17:46.735Z,1014.85
2018-03-21T21:18:46.713Z,1014.82
2018-03-21T21:19:46.689Z,1014.84
2018-03-21T21:20:46.662Z,1014.89
2018-03-21T21:21:46.633Z,1014.88
2018-03-21T21:22:46.615Z,1014.92
2018-03-21T21:23:46.599Z,1014.95
2018-03-21T21:24:46.621Z,1014.90
2018-03-21T21:25:46.561Z,1014.94
2018-03-21T21:26:46.522Z,1014.95
2018-03-21T21:27:46.513Z,1014.93
2018-03-21T21:28:46.495Z,1014.92
2018-03-21T21:29:46.455Z,1014.93
2018-03-21T21:30:46.442Z,1014.95
2018-03-21T21:31:46.433Z,1014.95
2018-03-21T21:32:46.390Z,1014.95
2018-03-21T21:33:46.360Z,1014.97
2018-03-21T21:34:46.345Z,1014.95
2018-03-21T21:35:46.321Z,1014.92
2018-03-21T21:36:46.281Z,1014.94
2018-03-21T21:37:46.275Z,1014.94
2018-03-21T21:38:46.248Z,1014.97
2018-03-21T21:39:46.217Z,1014.98
2018-03-21T21:40:46.199Z,1014.99
2018-03-21T21:41:46.177Z,1014.99
2018-03-21T21:42:46.148Z,1014.98
2018-03-21T21:43:46.123Z,1014.95
2018-03-21T21:44:46.094Z,1014.91
2018-03-21T21:45:46.096Z,1014.97
2018-03-21T21:46:46.053Z,1014.89
2018-03-21T21:47:46.035Z,1014.89
2018-03-21T21:48:46.001Z,1014.92
2018-03-21T21:49:45.987Z,1014.89
2018-03-21T21:50:45.979Z,1014.88
2018-03-21T21:51:45.957Z,1014.83
2018-03-21T21:52:45.929Z,1014.89
2018-03-21T21:53:45.877Z,1014.86
2018-03-21T21:54:45.879Z,1014.85
2018-03-21T21:55:45.843Z,1014.84
2018-03-21T21:56:46.470Z,1014.84
2018-03-21T21:57:45.794Z,1014.82
2018-03-21T21:58:45.781Z,1014.82
2018-03-21T21:59:45.745Z,1014.80
2018-03-21T22:00:45.724Z,1014.81
2018-03-21T22:01:45.697Z,1014.83
2018-03-21T22:02:45.708Z,1014.79
2018-03-21T22:03:45.654Z,1014.78
2018-03-21T22:04:45.631Z,1014.79
2018-03-21T22:05:45.608Z,1014.81
2018-03-21T22:06:45.582Z,1014.77
2018-03-21T22:07:45.558Z,1014.76
2018-03-21T22:08:45.556Z,1014.79
2018-03-21T22:09:45.506Z,1014.80
2018-03-21T22:10:45.481Z,1014.78
2018-03-21T22:11:45.472Z,1014.82
2018-03-21T22:12:45.440Z,1014.83
2018-03-21T22:13:45.421Z,1014.76
2018-03-21T22:14:45.451Z,1014.80
2018-03-21T22:15:45.407Z,1014.79
2018-03-21T22:16:45.383Z,1014.73
2018-03-21T22:17:45.319Z,1014.69
2018-03-21T22:18:45.340Z,1014.68
2018-03-21T22:19:45.299Z,1014.69
2018-03-21T22:20:45.261Z,1014.67
2018-03-21T22:21:45.251Z,1014.62
2018-03-21T22:22:45.219Z,1014.64
2018-03-21T22:23:45.198Z,1014.63
2018-03-21T22:24:45.161Z,1014.65
2018-03-21T22:25:45.171Z,1014.68
2018-03-21T22:26:45.101Z,1014.59
2018-03-21T22:27:45.074Z,1014.58
2018-03-21T22:28:45.051Z,1014.62
2018-03-21T22:29:45.053Z,1014.60
2018-03-21T22:30:45.003Z,1014.61
2018-03-21T22:31:44.983Z,1014.60
2018-03-21T22:32:44.981Z,1014.63
2018-03-21T22:33:44.940Z,1014.62
2018-03-21T22:34:44.912Z,1014.62
2018-03-21T22:35:44.944Z,1014.65
2018-03-21T22:36:44.904Z,1014.61
2018-03-21T22:37:48.188Z,1014.62
2018-03-21T22:38:44.840Z,1014.61
2018-03-21T22:39:44.836Z,1014.59
2018-03-21T22:40:44.796Z,1014.59
2018-03-21T22:41:44.762Z,1014.55
2018-03-21T22:42:44.790Z,1014.53
2018-03-21T22:43:44.704Z,1014.54
2018-03-21T22:44:44.680Z,1014.49
2018-03-21T22:45:44.672Z,1014.52
2018-03-21T22:46:44.634Z,1014.53
2018-03-21T22:47:44.610Z,1014.44
2018-03-21T22:48:44.581Z,1014.47
2018-03-21T22:49:44.567Z,1014.42
2018-03-21T22:50:44.533Z,1014.42
2018-03-21T22:51:44.538Z,1014.43
2018-03-21T22:52:44.494Z,1014.43
2018-03-21T22:53:44.489Z,1014.42
2018-03-21T22:54:44.442Z,1014.42
2018-03-21T22:55:44.419Z,1014.43
2018-03-21T22:56:45.613Z,1014.40
2018-03-21T22:57:44.367Z,1014.42
2018-03-21T22:58:44.369Z,1014.44
2018-03-21T22:59:44.336Z,1014.41
2018-03-21T23:00:44.296Z,1014.40
2018-03-21T23:01:44.281Z,1014.39
2018-03-21T23:02:45.980Z,1014.35
2018-03-21T23:03:44.226Z,1014.37
2018-03-21T23:04:44.200Z,1014.38
2018-03-21T23:05:44.186Z,1014.36
2018-03-21T23:06:44.162Z,1014.39
2018-03-21T23:07:44.120Z,1014.40
2018-03-21T23:08:44.106Z,1014.38
2018-03-21T23:09:44.082Z,1014.36
2018-03-21T23:10:44.056Z,1014.37
2018-03-21T23:11:44.036Z,1014.35
2018-03-21T23:12:44.011Z,1014.38
2018-03-21T23:13:44.000Z,1014.37
2018-03-21T23:14:43.957Z,1014.38
2018-03-21T23:15:43.943Z,1014.40
2018-03-21T23:16:43.922Z,1014.37
2018-03-21T23:17:43.890Z,1014.39
2018-03-21T23:18:43.864Z,1014.38
2018-03-21T23:19:43.865Z,1014.38
2018-03-21T23:20:43.820Z,1014.39
2018-03-21T23:21:43.822Z,1014.41
2018-03-21T23:22:43.790Z,1014.38
2018-03-21T23:23:43.756Z,1014.38
2018-03-21T23:24:44.551Z,1014.40
2018-03-21T23:25:43.736Z,1014.39
2018-03-21T23:26:43.676Z,1014.40
2018-03-21T23:27:43.651Z,1014.40
2018-03-21T23:28:43.640Z,1014.40
2018-03-21T23:29:43.624Z,1014.44
2018-03-21T23:30:43.592Z,1014.40
2018-03-21T23:31:43.560Z,1014.40
2018-03-21T23:32:43.570Z,1014.39
2018-03-21T23:33:43.515Z,1014.42
2018-03-21T23:34:43.486Z,1014.37
2018-03-21T23:35:43.595Z,1014.36
2018-03-21T23:36:43.458Z,1014.39
2018-03-21T23:37:43.415Z,1014.40
2018-03-21T23:38:43.401Z,1014.41
2018-03-21T23:39:43.416Z,1014.36
2018-03-21T23:40:43.336Z,1014.33
2018-03-21T23:41:43.314Z,1014.33
2018-03-21T23:42:43.328Z,1014.31
2018-03-21T23:43:43.280Z,1014.30
2018-03-21T23:44:43.251Z,1014.34
2018-03-21T23:45:43.249Z,1014.27
2018-03-21T23:46:44.082Z,1014.31
2018-03-21T23:47:43.230Z,1014.26
2018-03-21T23:48:43.210Z,1014.27
2018-03-21T23:49:43.141Z,1014.28
2018-03-21T23:50:43.093Z,1014.27
2018-03-21T23:51:43.077Z,1014.24
2018-03-21T23:52:43.710Z,1014.27
2018-03-21T23:53:43.022Z,1014.28
2018-03-21T23:54:43.010Z,1014.26
2018-03-21T23:55:43.034Z,1014.26
2018-03-21T23:56:42.990Z,1014.21
2018-03-21T23:57:43.024Z,1014.23
2018-03-21T23:58:42.979Z,1014.23
2018-03-21T23:59:42.888Z,1014.24
